sensor_id;sensor_type;location;lat;lon;timestamp;P1;durP1;ratioP1;P2;durP2;ratioP2
16039;SDS011;8124;48.634;8.120;2023-05-02T00:01:52;43.33;;;36.70;;
16039;SDS011;8124;48.634;8.120;2023-05-02T00:06:55;41.47;;;36.97;;
16039;SDS011;8124;48.634;8.120;2023-05-02T00:11:58;41.95;;;37.35;;
16039;SDS011;8124;48.634;8.120;2023-05-02T00:17:04;42.25;;;36.28;;
16039;SDS011;8124;48.634;8.120;2023-05-02T00:22:06;39.97;;;35.67;;
16039;SDS011;8124;48.634;8.120;2023-05-02T00:27:09;42.70;;;38.08;;
16039;SDS011;8124;48.634;8.120;2023-05-02T00:32:14;41.67;;;37.17;;
16039;SDS011;8124;48.634;8.120;2023-05-02T00:37:16;44.05;;;36.72;;
16039;SDS011;8124;48.634;8.120;2023-05-02T00:42:19;40.55;;;35.78;;
16039;SDS011;8124;48.634;8.120;2023-05-02T00:47:24;41.22;;;36.83;;
16039;SDS011;8124;48.634;8.120;2023-05-02T00:52:27;40.70;;;36.33;;
16039;SDS011;8124;48.634;8.120;2023-05-02T00:57:30;40.75;;;36.33;;
16039;SDS011;8124;48.634;8.120;2023-05-02T01:02:40;42.85;;;38.15;;
16039;SDS011;8124;48.634;8.120;2023-05-02T01:08:03;41.42;;;36.92;;
16039;SDS011;8124;48.634;8.120;2023-05-02T01:13:16;41.47;;;36.78;;
16039;SDS011;8124;48.634;8.120;2023-05-02T01:18:25;41.65;;;37.03;;
16039;SDS011;8124;48.634;8.120;2023-05-02T01:23:34;40.65;;;36.25;;
16039;SDS011;8124;48.634;8.120;2023-05-02T01:28:56;41.28;;;36.78;;
16039;SDS011;8124;48.634;8.120;2023-05-02T01:34:01;43.38;;;37.95;;
16039;SDS011;8124;48.634;8.120;2023-05-02T01:39:05;42.10;;;36.55;;
16039;SDS011;8124;48.634;8.120;2023-05-02T01:44:12;40.78;;;36.35;;
16039;SDS011;8124;48.634;8.120;2023-05-02T01:49:18;41.15;;;36.75;;
16039;SDS011;8124;48.634;8.120;2023-05-02T01:54:22;40.90;;;36.08;;
16039;SDS011;8124;48.634;8.120;2023-05-02T01:59:29;40.53;;;36.13;;
16039;SDS011;8124;48.634;8.120;2023-05-02T02:04:34;41.42;;;36.92;;
16039;SDS011;8124;48.634;8.120;2023-05-02T02:09:43;43.25;;;37.05;;
16039;SDS011;8124;48.634;8.120;2023-05-02T02:14:49;41.38;;;36.97;;
16039;SDS011;8124;48.634;8.120;2023-05-02T02:19:59;41.35;;;36.85;;
16039;SDS011;8124;48.634;8.120;2023-05-02T02:30:13;43.30;;;37.75;;
16039;SDS011;8124;48.634;8.120;2023-05-02T02:35:17;41.50;;;37.00;;
16039;SDS011;8124;48.634;8.120;2023-05-02T02:40:22;41.90;;;37.25;;
16039;SDS011;8124;48.634;8.120;2023-05-02T02:45:34;42.67;;;37.78;;
16039;SDS011;8124;48.634;8.120;2023-05-02T02:50:42;45.55;;;37.85;;
16039;SDS011;8124;48.634;8.120;2023-05-02T02:56:04;41.33;;;36.65;;
16039;SDS011;8124;48.634;8.120;2023-05-02T03:01:09;41.80;;;37.20;;
16039;SDS011;8124;48.634;8.120;2023-05-02T03:06:17;41.30;;;36.80;;
16039;SDS011;8124;48.634;8.120;2023-05-02T03:11:20;41.75;;;37.00;;
16039;SDS011;8124;48.634;8.120;2023-05-02T03:16:30;42.58;;;37.97;;
16039;SDS011;8124;48.634;8.120;2023-05-02T03:21:39;44.67;;;37.65;;
16039;SDS011;8124;48.634;8.120;2023-05-02T03:26:48;41.42;;;36.97;;
16039;SDS011;8124;48.634;8.120;2023-05-02T03:31:58;48.03;;;41.90;;
16039;SDS011;8124;48.634;8.120;2023-05-02T03:37:02;44.90;;;38.58;;
16039;SDS011;8124;48.634;8.120;2023-05-02T03:42:05;43.80;;;38.15;;
16039;SDS011;8124;48.634;8.120;2023-05-02T03:47:10;44.85;;;39.35;;
16039;SDS011;8124;48.634;8.120;2023-05-02T03:52:15;43.22;;;38.63;;
16039;SDS011;8124;48.634;8.120;2023-05-02T03:57:19;42.28;;;37.50;;
16039;SDS011;8124;48.634;8.120;2023-05-02T04:02:24;40.85;;;36.38;;
16039;SDS011;8124;48.634;8.120;2023-05-02T04:07:28;42.15;;;36.70;;
16039;SDS011;8124;48.634;8.120;2023-05-02T04:12:35;42.50;;;37.53;;
16039;SDS011;8124;48.634;8.120;2023-05-02T04:17:39;43.92;;;38.30;;
16039;SDS011;8124;48.634;8.120;2023-05-02T04:22:44;42.25;;;37.65;;
16039;SDS011;8124;48.634;8.120;2023-05-02T04:27:48;43.38;;;38.70;;
16039;SDS011;8124;48.634;8.120;2023-05-02T04:32:56;41.75;;;37.22;;
16039;SDS011;8124;48.634;8.120;2023-05-02T04:38:03;41.65;;;37.08;;
16039;SDS011;8124;48.634;8.120;2023-05-02T04:43:06;42.03;;;37.42;;
16039;SDS011;8124;48.634;8.120;2023-05-02T04:48:15;42.30;;;35.65;;
16039;SDS011;8124;48.634;8.120;2023-05-02T04:53:20;42.17;;;37.58;;
16039;SDS011;8124;48.634;8.120;2023-05-02T04:58:24;41.10;;;36.70;;
16039;SDS011;8124;48.634;8.120;2023-05-02T05:03:37;41.25;;;36.75;;
16039;SDS011;8124;48.634;8.120;2023-05-02T05:08:42;42.05;;;37.45;;
16039;SDS011;8124;48.634;8.120;2023-05-02T05:13:47;42.85;;;38.20;;
16039;SDS011;8124;48.634;8.120;2023-05-02T05:18:51;43.85;;;37.17;;
16039;SDS011;8124;48.634;8.120;2023-05-02T05:23:54;41.53;;;36.13;;
16039;SDS011;8124;48.634;8.120;2023-05-02T05:29:01;43.38;;;38.42;;
16039;SDS011;8124;48.634;8.120;2023-05-02T05:34:13;45.03;;;38.33;;
16039;SDS011;8124;48.634;8.120;2023-05-02T05:39:17;42.90;;;37.88;;
16039;SDS011;8124;48.634;8.120;2023-05-02T05:44:23;56.92;;;46.83;;
16039;SDS011;8124;48.634;8.120;2023-05-02T05:49:27;45.13;;;39.13;;
16039;SDS011;8124;48.634;8.120;2023-05-02T05:54:31;44.03;;;37.90;;
16039;SDS011;8124;48.634;8.120;2023-05-02T05:59:34;43.55;;;38.40;;
16039;SDS011;8124;48.634;8.120;2023-05-02T06:04:40;43.78;;;38.97;;
16039;SDS011;8124;48.634;8.120;2023-05-02T06:09:44;42.17;;;37.55;;
16039;SDS011;8124;48.634;8.120;2023-05-02T06:14:48;45.63;;;38.55;;
16039;SDS011;8124;48.634;8.120;2023-05-02T06:19:53;44.47;;;39.63;;
16039;SDS011;8124;48.634;8.120;2023-05-02T06:24:56;47.83;;;39.10;;
16039;SDS011;8124;48.634;8.120;2023-05-02T06:29:59;44.78;;;39.88;;
16039;SDS011;8124;48.634;8.120;2023-05-02T06:35:04;44.13;;;38.20;;
16039;SDS011;8124;48.634;8.120;2023-05-02T06:40:08;45.05;;;39.65;;
16039;SDS011;8124;48.634;8.120;2023-05-02T06:45:11;46.45;;;40.33;;
16039;SDS011;8124;48.634;8.120;2023-05-02T06:50:16;45.92;;;40.40;;
16039;SDS011;8124;48.634;8.120;2023-05-02T06:55:19;47.58;;;41.78;;
16039;SDS011;8124;48.634;8.120;2023-05-02T07:00:22;46.85;;;41.13;;
16039;SDS011;8124;48.634;8.120;2023-05-02T07:05:27;49.33;;;41.58;;
16039;SDS011;8124;48.634;8.120;2023-05-02T07:10:32;45.90;;;40.28;;
16039;SDS011;8124;48.634;8.120;2023-05-02T07:15:35;48.80;;;41.15;;
16039;SDS011;8124;48.634;8.120;2023-05-02T07:20:39;48.88;;;42.20;;
16039;SDS011;8124;48.634;8.120;2023-05-02T07:25:42;42.42;;;37.80;;
16039;SDS011;8124;48.634;8.120;2023-05-02T07:30:45;43.10;;;38.10;;
16039;SDS011;8124;48.634;8.120;2023-05-02T07:35:50;48.63;;;41.95;;
16039;SDS011;8124;48.634;8.120;2023-05-02T07:40:52;46.25;;;40.65;;
16039;SDS011;8124;48.634;8.120;2023-05-02T07:46:02;49.92;;;41.72;;
16039;SDS011;8124;48.634;8.120;2023-05-02T07:51:08;53.22;;;43.05;;
16039;SDS011;8124;48.634;8.120;2023-05-02T07:56:11;51.90;;;41.95;;
16039;SDS011;8124;48.634;8.120;2023-05-02T08:01:14;47.83;;;42.17;;
16039;SDS011;8124;48.634;8.120;2023-05-02T08:06:18;50.17;;;42.40;;
16039;SDS011;8124;48.634;8.120;2023-05-02T08:11:22;48.88;;;41.40;;
16039;SDS011;8124;48.634;8.120;2023-05-02T08:16:26;47.47;;;41.55;;
16039;SDS011;8124;48.634;8.120;2023-05-02T08:21:30;50.50;;;41.53;;
16039;SDS011;8124;48.634;8.120;2023-05-02T08:26:33;49.35;;;41.97;;
16039;SDS011;8124;48.634;8.120;2023-05-02T08:31:36;50.80;;;42.30;;
16039;SDS011;8124;48.634;8.120;2023-05-02T08:36:41;49.80;;;42.55;;
16039;SDS011;8124;48.634;8.120;2023-05-02T08:41:43;47.47;;;41.90;;
16039;SDS011;8124;48.634;8.120;2023-05-02T08:46:46;49.25;;;42.95;;
16039;SDS011;8124;48.634;8.120;2023-05-02T08:51:53;50.65;;;43.88;;
16039;SDS011;8124;48.634;8.120;2023-05-02T08:56:57;49.50;;;43.35;;
16039;SDS011;8124;48.634;8.120;2023-05-02T09:02:04;51.70;;;43.03;;
16039;SDS011;8124;48.634;8.120;2023-05-02T09:07:15;50.30;;;44.08;;
16039;SDS011;8124;48.634;8.120;2023-05-02T09:12:22;51.10;;;43.67;;
16039;SDS011;8124;48.634;8.120;2023-05-02T09:17:26;52.30;;;42.25;;
16039;SDS011;8124;48.634;8.120;2023-05-02T09:22:48;53.17;;;43.88;;
16039;SDS011;8124;48.634;8.120;2023-05-02T09:27:52;51.28;;;44.65;;
16039;SDS011;8124;48.634;8.120;2023-05-02T09:32:56;51.20;;;44.88;;
16039;SDS011;8124;48.634;8.120;2023-05-02T09:38:00;52.03;;;44.60;;
16039;SDS011;8124;48.634;8.120;2023-05-02T09:43:12;51.97;;;44.03;;
16039;SDS011;8124;48.634;8.120;2023-05-02T09:48:16;54.35;;;45.80;;
16039;SDS011;8124;48.634;8.120;2023-05-02T09:53:20;53.15;;;45.10;;
16039;SDS011;8124;48.634;8.120;2023-05-02T09:58:23;55.65;;;47.13;;
16039;SDS011;8124;48.634;8.120;2023-05-02T10:03:27;57.22;;;46.58;;
16039;SDS011;8124;48.634;8.120;2023-05-02T10:08:33;54.30;;;46.15;;
16039;SDS011;8124;48.634;8.120;2023-05-02T10:13:37;56.55;;;46.30;;
16039;SDS011;8124;48.634;8.120;2023-05-02T10:18:45;58.13;;;47.92;;
16039;SDS011;8124;48.634;8.120;2023-05-02T10:23:54;61.28;;;48.13;;
16039;SDS011;8124;48.634;8.120;2023-05-02T10:28:57;57.03;;;46.50;;
16039;SDS011;8124;48.634;8.120;2023-05-02T10:34:01;51.42;;;43.80;;
16039;SDS011;8124;48.634;8.120;2023-05-02T10:39:07;56.08;;;48.08;;
16039;SDS011;8124;48.634;8.120;2023-05-02T10:44:09;54.70;;;46.47;;
16039;SDS011;8124;48.634;8.120;2023-05-02T10:49:12;55.17;;;46.70;;
16039;SDS011;8124;48.634;8.120;2023-05-02T10:54:20;56.38;;;47.15;;
16039;SDS011;8124;48.634;8.120;2023-05-02T10:59:25;54.13;;;46.17;;
16039;SDS011;8124;48.634;8.120;2023-05-02T11:26:31;60.20;;;49.65;;
16039;SDS011;8124;48.634;8.120;2023-05-02T11:37:09;57.13;;;48.40;;
16039;SDS011;8124;48.634;8.120;2023-05-02T11:42:29;57.60;;;48.88;;
16039;SDS011;8124;48.634;8.120;2023-05-02T11:47:33;57.40;;;49.80;;
16039;SDS011;8124;48.634;8.120;2023-05-02T11:52:43;58.80;;;48.00;;
16039;SDS011;8124;48.634;8.120;2023-05-02T11:57:48;59.08;;;49.58;;
16039;SDS011;8124;48.634;8.120;2023-05-02T12:02:51;55.75;;;47.97;;
16039;SDS011;8124;48.634;8.120;2023-05-02T12:07:54;54.88;;;47.25;;
16039;SDS011;8124;48.634;8.120;2023-05-02T12:13:02;52.50;;;45.08;;
16039;SDS011;8124;48.634;8.120;2023-05-02T12:18:06;55.67;;;46.00;;
16039;SDS011;8124;48.634;8.120;2023-05-02T12:23:09;54.05;;;46.47;;
16039;SDS011;8124;48.634;8.120;2023-05-02T12:28:15;53.53;;;45.35;;
16039;SDS011;8124;48.634;8.120;2023-05-02T12:33:19;54.92;;;45.88;;
16039;SDS011;8124;48.634;8.120;2023-05-02T12:38:22;54.38;;;45.53;;
16039;SDS011;8124;48.634;8.120;2023-05-02T12:43:27;58.28;;;45.58;;
16039;SDS011;8124;48.634;8.120;2023-05-02T12:48:46;56.15;;;46.45;;
16039;SDS011;8124;48.634;8.120;2023-05-02T12:54:03;59.10;;;48.67;;
16039;SDS011;8124;48.634;8.120;2023-05-02T12:59:08;63.45;;;50.55;;
16039;SDS011;8124;48.634;8.120;2023-05-02T13:04:32;66.53;;;49.67;;
16039;SDS011;8124;48.634;8.120;2023-05-02T13:09:35;60.28;;;49.22;;
16039;SDS011;8124;48.634;8.120;2023-05-02T13:14:40;57.75;;;47.50;;
16039;SDS011;8124;48.634;8.120;2023-05-02T13:19:43;55.60;;;45.65;;
16039;SDS011;8124;48.634;8.120;2023-05-02T13:25:00;56.97;;;45.15;;
16039;SDS011;8124;48.634;8.120;2023-05-02T13:30:06;53.47;;;44.80;;
16039;SDS011;8124;48.634;8.120;2023-05-02T13:35:10;53.92;;;45.08;;
16039;SDS011;8124;48.634;8.120;2023-05-02T13:40:14;53.05;;;43.97;;
16039;SDS011;8124;48.634;8.120;2023-05-02T13:45:18;51.58;;;43.90;;
16039;SDS011;8124;48.634;8.120;2023-05-02T13:50:21;53.58;;;45.00;;
16039;SDS011;8124;48.634;8.120;2023-05-02T13:55:24;50.20;;;43.53;;
16039;SDS011;8124;48.634;8.120;2023-05-02T14:00:36;51.22;;;42.75;;
16039;SDS011;8124;48.634;8.120;2023-05-02T14:05:39;52.95;;;44.17;;
16039;SDS011;8124;48.634;8.120;2023-05-02T14:10:44;51.42;;;43.13;;
16039;SDS011;8124;48.634;8.120;2023-05-02T14:15:48;49.35;;;40.33;;
16039;SDS011;8124;48.634;8.120;2023-05-02T14:21:00;44.92;;;40.03;;
16039;SDS011;8124;48.634;8.120;2023-05-02T14:26:04;45.10;;;39.53;;
16039;SDS011;8124;48.634;8.120;2023-05-02T14:31:08;43.17;;;38.47;;
16039;SDS011;8124;48.634;8.120;2023-05-02T14:36:11;44.15;;;39.33;;
16039;SDS011;8124;48.634;8.120;2023-05-02T14:41:14;43.83;;;39.03;;
16039;SDS011;8124;48.634;8.120;2023-05-02T14:46:19;44.90;;;38.83;;
16039;SDS011;8124;48.634;8.120;2023-05-02T14:51:22;44.92;;;39.58;;
16039;SDS011;8124;48.634;8.120;2023-05-02T14:56:25;44.53;;;39.25;;
16039;SDS011;8124;48.634;8.120;2023-05-02T15:01:30;43.70;;;38.88;;
16039;SDS011;8124;48.634;8.120;2023-05-02T15:06:33;43.83;;;39.03;;
16039;SDS011;8124;48.634;8.120;2023-05-02T15:11:37;44.80;;;39.30;;
16039;SDS011;8124;48.634;8.120;2023-05-02T15:16:41;45.28;;;39.13;;
16039;SDS011;8124;48.634;8.120;2023-05-02T15:21:47;43.88;;;39.08;;
16039;SDS011;8124;48.634;8.120;2023-05-02T15:26:50;43.08;;;38.38;;
16039;SDS011;8124;48.634;8.120;2023-05-02T15:31:56;45.03;;;38.03;;
16039;SDS011;8124;48.634;8.120;2023-05-02T15:36:59;43.30;;;38.45;;
16039;SDS011;8124;48.634;8.120;2023-05-02T15:42:03;43.75;;;38.53;;
16039;SDS011;8124;48.634;8.120;2023-05-02T15:47:08;44.75;;;39.13;;
16039;SDS011;8124;48.634;8.120;2023-05-02T15:52:11;44.85;;;38.83;;
16039;SDS011;8124;48.634;8.120;2023-05-02T15:57:14;43.33;;;38.47;;
16039;SDS011;8124;48.634;8.120;2023-05-02T16:02:18;43.45;;;38.70;;
16039;SDS011;8124;48.634;8.120;2023-05-02T16:07:22;43.85;;;39.05;;
16039;SDS011;8124;48.634;8.120;2023-05-02T16:12:24;43.95;;;38.85;;
16039;SDS011;8124;48.634;8.120;2023-05-02T16:17:29;44.00;;;38.78;;
16039;SDS011;8124;48.634;8.120;2023-05-02T16:22:32;44.22;;;38.80;;
16039;SDS011;8124;48.634;8.120;2023-05-02T16:27:40;43.30;;;38.60;;
16039;SDS011;8124;48.634;8.120;2023-05-02T16:32:45;44.00;;;39.22;;
16039;SDS011;8124;48.634;8.120;2023-05-02T16:37:54;45.30;;;40.38;;
16039;SDS011;8124;48.634;8.120;2023-05-02T16:42:57;44.65;;;38.75;;
16039;SDS011;8124;48.634;8.120;2023-05-02T16:48:01;44.22;;;39.20;;
16039;SDS011;8124;48.634;8.120;2023-05-02T16:53:05;45.05;;;38.78;;
16039;SDS011;8124;48.634;8.120;2023-05-02T16:58:08;43.40;;;38.70;;
16039;SDS011;8124;48.634;8.120;2023-05-02T17:03:12;43.17;;;38.20;;
16039;SDS011;8124;48.634;8.120;2023-05-02T17:08:15;42.63;;;37.97;;
16039;SDS011;8124;48.634;8.120;2023-05-02T17:13:18;42.65;;;38.05;;
16039;SDS011;8124;48.634;8.120;2023-05-02T17:18:23;43.20;;;38.22;;
16039;SDS011;8124;48.634;8.120;2023-05-02T17:23:28;42.17;;;37.58;;
16039;SDS011;8124;48.634;8.120;2023-05-02T17:28:31;43.00;;;38.38;;
16039;SDS011;8124;48.634;8.120;2023-05-02T17:33:36;42.22;;;37.63;;
16039;SDS011;8124;48.634;8.120;2023-05-02T17:38:39;42.97;;;37.55;;
16039;SDS011;8124;48.634;8.120;2023-05-02T17:43:42;42.45;;;37.85;;
16039;SDS011;8124;48.634;8.120;2023-05-02T17:48:47;41.65;;;37.15;;
16039;SDS011;8124;48.634;8.120;2023-05-02T17:53:53;42.92;;;37.53;;
16039;SDS011;8124;48.634;8.120;2023-05-02T17:58:56;43.30;;;37.45;;
16039;SDS011;8124;48.634;8.120;2023-05-02T18:04:01;41.03;;;36.60;;
16039;SDS011;8124;48.634;8.120;2023-05-02T18:09:05;41.95;;;37.40;;
16039;SDS011;8124;48.634;8.120;2023-05-02T18:14:11;41.90;;;36.95;;
16039;SDS011;8124;48.634;8.120;2023-05-02T18:19:16;41.70;;;37.15;;
16039;SDS011;8124;48.634;8.120;2023-05-02T18:24:18;42.05;;;37.40;;
16039;SDS011;8124;48.634;8.120;2023-05-02T18:29:22;43.75;;;37.60;;
16039;SDS011;8124;48.634;8.120;2023-05-02T18:34:30;42.08;;;37.47;;
16039;SDS011;8124;48.634;8.120;2023-05-02T18:39:33;41.08;;;36.58;;
16039;SDS011;8124;48.634;8.120;2023-05-02T18:44:36;42.42;;;37.83;;
16039;SDS011;8124;48.634;8.120;2023-05-02T18:49:41;42.90;;;38.00;;
16039;SDS011;8124;48.634;8.120;2023-05-02T18:54:44;42.38;;;37.78;;
16039;SDS011;8124;48.634;8.120;2023-05-02T18:59:47;42.08;;;37.50;;
16039;SDS011;8124;48.634;8.120;2023-05-02T19:04:52;42.50;;;38.00;;
16039;SDS011;8124;48.634;8.120;2023-05-02T19:09:55;41.50;;;37.00;;
16039;SDS011;8124;48.634;8.120;2023-05-02T19:14:58;42.83;;;37.85;;
16039;SDS011;8124;48.634;8.120;2023-05-02T19:20:03;41.88;;;37.25;;
16039;SDS011;8124;48.634;8.120;2023-05-02T19:25:07;44.30;;;38.47;;
16039;SDS011;8124;48.634;8.120;2023-05-02T19:30:15;46.30;;;40.78;;
16039;SDS011;8124;48.634;8.120;2023-05-02T19:35:25;42.20;;;37.60;;
16039;SDS011;8124;48.634;8.120;2023-05-02T19:40:28;42.70;;;37.65;;
16039;SDS011;8124;48.634;8.120;2023-05-02T19:45:32;42.53;;;37.33;;
16039;SDS011;8124;48.634;8.120;2023-05-02T19:50:36;42.63;;;37.97;;
16039;SDS011;8124;48.634;8.120;2023-05-02T19:55:39;41.88;;;37.05;;
16039;SDS011;8124;48.634;8.120;2023-05-02T20:00:42;41.75;;;37.13;;
16039;SDS011;8124;48.634;8.120;2023-05-02T20:05:47;42.10;;;37.05;;
16039;SDS011;8124;48.634;8.120;2023-05-02T20:10:51;41.08;;;36.58;;
16039;SDS011;8124;48.634;8.120;2023-05-02T20:15:55;40.83;;;36.35;;
16039;SDS011;8124;48.634;8.120;2023-05-02T20:21:00;41.47;;;36.70;;
16039;SDS011;8124;48.634;8.120;2023-05-02T20:26:03;42.42;;;37.17;;
16039;SDS011;8124;48.634;8.120;2023-05-02T20:31:05;41.88;;;36.60;;
16039;SDS011;8124;48.634;8.120;2023-05-02T20:36:10;41.60;;;37.10;;
16039;SDS011;8124;48.634;8.120;2023-05-02T20:41:13;41.22;;;36.72;;
16039;SDS011;8124;48.634;8.120;2023-05-02T20:46:17;40.70;;;36.30;;
16039;SDS011;8124;48.634;8.120;2023-05-02T20:51:22;41.15;;;36.65;;
16039;SDS011;8124;48.634;8.120;2023-05-02T20:56:28;41.22;;;36.60;;
16039;SDS011;8124;48.634;8.120;2023-05-02T21:01:31;42.78;;;36.22;;
16039;SDS011;8124;48.634;8.120;2023-05-02T21:06:36;41.47;;;36.90;;
16039;SDS011;8124;48.634;8.120;2023-05-02T21:11:39;41.90;;;36.90;;
16039;SDS011;8124;48.634;8.120;2023-05-02T21:16:41;42.10;;;36.53;;
16039;SDS011;8124;48.634;8.120;2023-05-02T21:21:46;41.78;;;37.22;;
16039;SDS011;8124;48.634;8.120;2023-05-02T21:26:49;43.55;;;36.63;;
16039;SDS011;8124;48.634;8.120;2023-05-02T21:31:52;41.10;;;36.40;;
16039;SDS011;8124;48.634;8.120;2023-05-02T21:36:56;41.90;;;37.30;;
16039;SDS011;8124;48.634;8.120;2023-05-02T21:42:00;42.95;;;36.72;;
16039;SDS011;8124;48.634;8.120;2023-05-02T21:47:03;41.67;;;36.75;;
16039;SDS011;8124;48.634;8.120;2023-05-02T21:52:07;40.45;;;35.95;;
16039;SDS011;8124;48.634;8.120;2023-05-02T22:02:36;41.60;;;36.15;;
16039;SDS011;8124;48.634;8.120;2023-05-02T22:07:40;41.97;;;36.78;;
16039;SDS011;8124;48.634;8.120;2023-05-02T22:12:43;41.72;;;36.95;;
16039;SDS011;8124;48.634;8.120;2023-05-02T22:17:46;42.47;;;37.88;;
16039;SDS011;8124;48.634;8.120;2023-05-02T22:22:50;40.83;;;36.33;;
16039;SDS011;8124;48.634;8.120;2023-05-02T22:27:53;43.40;;;37.65;;
16039;SDS011;8124;48.634;8.120;2023-05-02T22:32:56;42.05;;;36.83;;
16039;SDS011;8124;48.634;8.120;2023-05-02T22:38:03;43.53;;;37.20;;
16039;SDS011;8124;48.634;8.120;2023-05-02T22:43:06;41.30;;;36.58;;
16039;SDS011;8124;48.634;8.120;2023-05-02T22:48:09;42.63;;;36.85;;
16039;SDS011;8124;48.634;8.120;2023-05-02T22:53:14;40.97;;;36.47;;
16039;SDS011;8124;48.634;8.120;2023-05-02T22:58:17;43.60;;;36.97;;
16039;SDS011;8124;48.634;8.120;2023-05-02T23:03:20;41.72;;;36.83;;
16039;SDS011;8124;48.634;8.120;2023-05-02T23:08:24;45.03;;;38.38;;
16039;SDS011;8124;48.634;8.120;2023-05-02T23:13:27;43.45;;;37.80;;
16039;SDS011;8124;48.634;8.120;2023-05-02T23:18:30;42.97;;;38.28;;
16039;SDS011;8124;48.634;8.120;2023-05-02T23:23:34;41.83;;;36.92;;
16039;SDS011;8124;48.634;8.120;2023-05-02T23:28:37;45.17;;;37.67;;
16039;SDS011;8124;48.634;8.120;2023-05-02T23:33:41;41.88;;;37.05;;
16039;SDS011;8124;48.634;8.120;2023-05-02T23:38:45;44.72;;;36.53;;
16039;SDS011;8124;48.634;8.120;2023-05-02T23:43:48;41.85;;;36.55;;
16039;SDS011;8124;48.634;8.120;2023-05-02T23:48:51;44.95;;;36.28;;
16039;SDS011;8124;48.634;8.120;2023-05-02T23:53:55;41.53;;;36.30;;
16039;SDS011;8124;48.634;8.120;2023-05-02T23:58:58;41.47;;;36.50;;
